Latest Coastal Weather Observations for Port Augusta

IDS60701

Issued at 11:01 am CST Saturday 25 June 2016 (issued every 10 minutes, with the page automatically refreshed every 10 minutes)

About coastal observations | Map of coastal stations | Coastal observations for SA | Marine services | Other Formats
Station Details ID: 018201 Name: PORT AUGUSTA AERO Lat: -32.51 Lon: 137.72 Height: 13.97 m
Data from the previous 72 hours. | See also: Recent months at Port Augusta
Date/Time
CST
Temp
°C
Wind Pressure Rain since
9am
mm
Weather Cloud Vis
km
Sea
Height
m
Swell
Dir  Spd
kts
Gust
kts
hPa Trend Height
m
Period
s
Dir
25/11:00am 13.1 N 5 9 1025.5 - 0.0 - - 10 - - - -
25/10:30am 12.3 WNW 1 5 1025.7 - 0.0 - - 10 - - - -
25/10:00am 11.1 ESE 2 3 1025.8 - 0.0 - - 10 - - - -
25/09:30am 9.5 CALM 0 0 1025.7 - 0.0 - - 10 - - - -
25/09:00am 8.2 CALM 0 0 1025.4 - 0.2 - - 10 - - - -
25/08:30am 6.3 CALM 0 0 1025.4 - 0.2 - Partly cloudy 10 - - - -
25/08:00am 4.9 CALM 0 2 1025.4 - 0.2 - Partly cloudy 10 - - - -
25/07:30am 4.1 CALM 0 0 1025.1 - 0.2 - Cloudy 10 - - - -
25/07:00am 4.3 CALM 0 0 1025.0 - 0.2 - Cloudy 10 - - - -
25/06:30am 4.3 SW 2 4 1024.8 - 0.2 - Cloudy 10 - - - -
25/06:00am 4.0 SW 3 5 1024.5 - 0.2 - Cloudy 10 - - - -
25/05:30am 3.1 SSW 4 5 1024.4 - 0.2 - Cloudy 10 - - - -
25/05:00am 2.6 CALM 0 0 1024.4 - 0.2 - Cloudy 10 - - - -
25/04:30am 3.0 CALM 0 0 1024.5 - 0.2 - - 10 - - - -
25/04:00am 3.2 CALM 0 0 1024.4 - 0.2 - - 10 - - - -
25/03:30am 3.0 SSW 3 4 1024.3 - 0.0 - - 10 - - - -
25/03:00am 3.3 SSW 3 4 1024.3 - 0.0 - - 10 - - - -
25/02:30am 3.8 SW 5 5 1024.5 - 0.0 - - 10 - - - -
25/02:00am 4.0 SW 5 5 1024.5 - 0.0 - - 10 - - - -
25/01:30am 4.4 SW 5 5 1024.4 - 0.0 - - 10 - - - -
25/01:00am 5.1 WSW 4 5 1024.4 - 0.0 - - 10 - - - -
25/12:30am 6.1 W 3 4 1024.4 - 0.0 - - 10 - - - -
25/12:00am 7.2 WSW 1 3 1024.2 - 0.0 - - 10 - - - -
 
Date/Time
CST
Temp
°C
Wind Pressure Rain since
9am
mm
Weather Cloud Vis
km
Sea
Height
m
Swell
Dir  Spd
kts
Gust
kts
hPa Trend Height
m
Period
s
Dir
24/11:30pm 8.5 S 4 4 1024.1 - 0.0 - - 10 - - - -
24/11:00pm 9.6 E 4 4 1024.2 - 0.0 - Partly cloudy 10 - - - -
24/10:30pm 10.0 E 4 4 1024.1 - 0.0 - Partly cloudy 10 - - - -
24/10:00pm 9.8 CALM 0 0 1024.1 - 0.0 - Cloudy 10 - - - -
24/09:30pm 10.2 CALM 0 0 1024.2 - 0.0 - Cloudy 10 - - - -
24/09:00pm 10.3 CALM 0 0 1024.2 - 0.0 - Cloudy 10 - - - -
24/08:30pm 10.4 CALM 0 0 1024.0 - 0.0 - Cloudy 10 - - - -
24/08:00pm 10.5 CALM 0 0 1023.8 - 0.0 - Partly cloudy 10 - - - -
24/07:30pm 10.6 ESE 3 5 1023.5 - 0.0 - Cloudy 10 - - - -
24/07:00pm 11.1 S 5 7 1023.1 - 0.0 - Cloudy 10 - - - -
24/06:30pm 11.4 SSE 5 7 1022.6 - 0.0 - Cloudy 10 - - - -
24/06:00pm 11.2 SSE 5 6 1022.3 - 0.0 - Cloudy 10 - - - -
24/05:30pm 11.5 SSE 6 7 1021.9 - 0.0 - Cloudy 10 - - - -
24/05:00pm 12.3 S 8 11 1021.5 - 0.0 - Partly cloudy 10 - - - -
24/04:30pm 13.1 S 7 11 1021.1 - 0.0 - Cloudy 10 - - - -
24/04:00pm 13.1 SSW 9 13 1020.8 - 0.0 - Partly cloudy 10 - - - -
24/03:30pm 13.4 SSW 9 11 1020.3 - 0.0 - Partly cloudy 10 - - - -
24/03:00pm 13.9 SSW 12 16 1020.0 - 0.0 - Cloudy 10 - - - -
24/02:30pm 14.7 SSW 13 17 1019.7 - 0.0 - Partly cloudy 10 - - - -
24/02:00pm 14.9 SSW 12 16 1019.6 - 0.0 - Cloudy 10 - - - -
24/01:30pm 14.0 SW 15 19 1019.6 - 0.0 - Partly cloudy 10 - - - -
24/01:00pm 14.1 SSW 13 18 1019.6 - 0.0 - Partly cloudy 10 - - - -
24/12:30pm 13.9 SSW 15 22 1019.6 - 0.0 - Partly cloudy 10 - - - -
24/12:00pm 13.7 SSW 16 24 1019.9 - 0.0 - Mostly clear 10 - - - -
24/11:30am 13.2 SW 14 18 1020.0 - 0.0 - Partly cloudy 10 - - - -
24/11:00am 12.7 SW 12 17 1020.1 - 0.0 - - 10 - - - -
24/10:30am 11.9 SW 12 17 1020.0 - 0.0 - Partly cloudy 10 - - - -
24/10:00am 11.4 WSW 11 14 1019.9 - 0.0 - Partly cloudy 10 - - - -
24/09:30am 10.7 WSW 5 10 1019.7 - 0.0 - Partly cloudy 10 - - - -
24/09:00am 10.0 NW 3 5 1019.2 - 2.8 - Mostly clear 10 - - - -
24/08:30am 8.2 WNW 6 8 1018.6 - 2.8 - - 10 - - - -
24/08:00am 6.3 NW 7 8 1018.0 - 2.8 - - 10 - - - -
24/07:30am 5.0 NW 5 6 1017.6 - 2.8 - Partly cloudy 10 - - - -
24/07:00am 6.0 WNW 3 4 1017.2 - 2.8 - - 10 - - - -
24/06:30am 7.2 NW 3 4 1016.7 - 2.8 - Partly cloudy 10 - - - -
24/06:00am 7.9 NW 9 10 1016.2 - 2.8 - Cloudy 10 - - - -
24/05:30am 8.8 WNW 7 9 1015.9 - 2.8 - Partly cloudy 10 - - - -
24/05:00am 8.8 NW 4 6 1015.5 - 2.8 - Partly cloudy 10 - - - -
24/04:30am 8.7 WNW 6 8 1014.8 - 2.8 - Partly cloudy 10 - - - -
24/04:00am 8.5 NW 9 13 1014.4 - 2.8 - Partly cloudy 10 - - - -
24/03:30am 7.8 NNW 10 12 1014.0 - 2.8 - Partly cloudy 10 - - - -
24/03:00am 7.8 NW 9 11 1013.6 - 2.8 Rain Cloudy 10 - - - -
24/02:30am 8.2 NW 10 13 1013.5 - 2.8 - Partly cloudy 10 - - - -
24/02:00am 7.6 NNW 9 11 1013.3 - 2.8 - Partly cloudy 10 - - - -
24/01:30am 7.9 NNW 9 11 1013.0 - 2.8 - Cloudy 10 - - - -
24/01:00am 7.7 NW 9 10 1012.9 - 2.8 - - 10 - - - -
24/12:30am 7.7 NNW 9 11 1012.9 - 2.8 - - 10 - - - -
24/12:00am 7.7 NNW 8 9 1012.8 - 2.8 - - 10 - - - -
 
Date/Time
CST
Temp
°C
Wind Pressure Rain since
9am
mm
Weather Cloud Vis
km
Sea
Height
m
Swell
Dir  Spd
kts
Gust
kts
hPa Trend Height
m
Period
s
Dir
23/11:30pm 8.7 NNW 5 6 1012.6 - 2.8 - Cloudy 10 - - - -
23/11:00pm 9.2 NNW 5 7 1012.5 - 2.8 - Partly cloudy 10 - - - -
23/10:30pm 9.5 SW 3 4 1012.5 - 2.8 - Partly cloudy 10 - - - -
23/10:00pm 9.7 SW 5 6 1012.1 - 2.8 - Partly cloudy 10 - - - -
23/09:30pm 10.2 SSW 4 6 1011.7 - 2.8 - Partly cloudy 10 - - - -
23/09:00pm 10.5 WSW 8 10 1011.2 - 2.8 Recent precip. Cloudy 10 - - - -
23/08:30pm 11.1 W 12 17 1010.6 - 2.8 - Partly cloudy 10 - - - -
23/08:00pm 10.7 WNW 7 11 1010.0 - 2.4 - Partly cloudy 10 - - - -
23/07:30pm 10.7 WNW 9 13 1009.4 - 2.4 - Partly cloudy 10 - - - -
23/07:00pm 11.0 WNW 9 13 1008.9 - 2.4 - Partly cloudy 10 - - - -
23/06:30pm 11.5 WNW 6 8 1008.6 - 2.4 - Partly cloudy 10 - - - -
23/06:17pm 11.3 W 7 9 1008.4 - 2.4 - Partly cloudy 10 - - - -
23/06:16pm 11.2 W 7 9 1008.3 - 2.4 - Partly cloudy 10 - - - -
23/06:04pm 11.2 WSW 13 20 1008.3 - 2.4 - Partly cloudy 4 - - - -
23/06:00pm 11.3 WSW 12 20 1008.5 - 2.4 Showers Cloudy 3 - - - -
23/05:39pm 12.1 WSW 12 15 1008.1 - 0.2 - Partly cloudy 6 - - - -
23/05:30pm 12.6 WSW 10 14 1007.8 - 0.0 - Partly cloudy 10 - - - -
23/05:00pm 13.3 WNW 17 22 1007.4 - 0.0 - Partly cloudy 10 - - - -
23/04:30pm 14.2 WNW 18 23 1007.0 - 0.0 - Partly cloudy 10 - - - -
23/04:00pm 15.0 WNW 13 17 1006.5 - 0.0 - Cloudy 10 - - - -
23/03:30pm 15.0 NW 16 21 1006.1 - 0.0 - Cloudy 10 - - - -
23/03:00pm 15.1 NW 19 25 1005.9 - 0.0 - Mostly cloudy 10 - - - -
23/02:30pm 15.2 NW 19 25 1006.1 - 0.0 - Partly cloudy 10 - - - -
23/02:00pm 16.5 NW 21 27 1006.7 - 0.0 - Partly cloudy 10 - - - -
23/01:30pm 16.3 NNW 20 26 1007.2 - 0.0 - Partly cloudy 10 - - - -
23/01:00pm 15.6 NW 21 26 1007.5 - 0.0 - Partly cloudy 10 - - - -
23/12:30pm 15.7 NW 19 25 1008.1 - 0.0 - - 10 - - - -
23/12:00pm 14.8 NW 18 23 1008.5 - 0.0 - - 10 - - - -
23/11:30am 14.5 NNW 17 22 1009.0 - 0.0 - Partly cloudy 10 - - - -
23/11:00am 13.3 NNW 12 17 1009.9 - 0.0 - Partly cloudy 10 - - - -
23/10:30am 12.1 NW 16 21 1010.1 - 0.0 - Partly cloudy 10 - - - -
23/10:09am 11.1 NNW 14 17 1009.9 - 0.0 - Partly cloudy 10 - - - -
23/10:00am 10.5 NNW 14 17 1010.1 - 0.0 - Partly cloudy 10 - - - -
23/09:30am 9.4 NNW 13 16 1010.2 - 0.0 - Cloudy 10 - - - -
23/09:18am 9.1 NW 11 15 1010.1 - 0.0 - Cloudy 10 - - - -
23/09:00am 8.8 NNW 12 14 1009.9 - 0.4 - Cloudy 1 - - - -
23/08:56am 8.5 N 12 15 1009.8 - 0.4 - Cloudy 1 - - - -
23/08:44am 8.0 NNW 11 14 1010.2 - 0.4 - Cloudy 0.7 - - - -
23/08:30am 7.7 NNW 10 12 1010.4 - 0.4 - Cloudy - - - - -
23/08:00am 6.9 NNW 9 12 1010.4 - 0.4 - Cloudy - - - - -
23/07:30am 6.7 NNW 8 10 1010.4 - 0.4 - Cloudy 0.3 - - - -
23/07:24am 6.8 NNW 9 10 1010.3 - 0.2 - Cloudy 0.3 - - - -
23/07:00am 6.9 NNW 8 10 1010.4 - 0.2 - Cloudy - - - - -
23/06:30am 7.0 NNW 8 10 1010.2 - 0.2 - Cloudy 0.4 - - - -
23/06:25am 7.0 NNW 9 11 1010.2 - 0.2 - Cloudy 0.5 - - - -
23/06:00am 7.2 NW 7 11 1010.3 - 0.2 - Partly cloudy 2 - - - -
23/05:58am 7.0 NW 7 9 1010.3 - 0.2 - Partly cloudy 2 - - - -
23/05:40am 5.6 NNW 5 6 1010.2 - 0.2 - Partly cloudy 6 - - - -
23/05:30am 6.0 N 5 6 1010.2 - 0.2 - Partly cloudy 10 - - - -
23/05:29am 6.1 N 5 5 1010.2 - 0.2 - Partly cloudy 10 - - - -
23/05:05am 5.8 NNW 5 6 1010.2 - 0.2 - - 6 - - - -
23/05:00am 6.3 NNW 5 6 1010.2 - 0.2 - - 10 - - - -
23/04:30am 6.5 NW 7 8 1010.2 - 0.2 - - 10 - - - -
23/04:00am 7.0 NW 8 10 1010.3 - 0.2 - - 10 - - - -
23/03:30am 6.8 NW 7 8 1010.7 - 0.2 - - 10 - - - -
23/03:00am 7.4 NW 8 9 1010.8 - 0.2 - - 10 - - - -
23/02:30am 7.5 NNW 9 9 1011.0 - 0.2 - - 10 - - - -
23/02:00am 8.0 NNW 8 9 1011.3 - 0.2 - - 10 - - - -
23/01:30am 8.1 NNW 8 9 1011.6 - 0.2 - Partly cloudy 10 - - - -
23/01:00am 9.3 NW 7 8 1012.2 - 0.0 - Partly cloudy 10 - - - -
23/12:30am 9.5 NW 7 8 1012.4 - 0.0 - Partly cloudy 10 - - - -
23/12:00am 9.3 NW 7 8 1012.8 - 0.0 - Mostly cloudy 10 - - - -
 
Date/Time
CST
Temp
°C
Wind Pressure Rain since
9am
mm
Weather Cloud Vis
km
Sea
Height
m
Swell
Dir  Spd
kts
Gust
kts
hPa Trend Height
m
Period
s
Dir
22/11:30pm 8.5 NNW 7 9 1013.2 - 0.0 - Partly cloudy 10 - - - -
22/11:00pm 8.4 NNW 6 7 1013.3 - 0.0 - Partly cloudy 10 - - - -
22/10:30pm 9.4 N 5 7 1013.2 - 0.0 - Partly cloudy 10 - - - -
22/10:00pm 9.2 N 7 11 1013.5 - 0.0 - - 10 - - - -
22/09:30pm 9.6 NW 5 6 1013.5 - 0.0 - Partly cloudy 10 - - - -
22/09:00pm 10.0 NW 6 7 1013.7 - 0.0 - Mostly clear 10 - - - -
22/08:30pm 10.8 NNW 7 8 1013.6 - 0.0 - Partly cloudy 10 - - - -
22/08:00pm 11.7 N 9 11 1013.5 - 0.0 - Cloudy 10 - - - -
22/07:30pm 11.6 N 9 10 1013.6 - 0.0 - Partly cloudy 10 - - - -
22/07:00pm 11.1 N 7 8 1013.6 - 0.0 - Cloudy 10 - - - -
22/06:30pm 12.0 N 7 8 1013.5 - 0.0 - Cloudy 10 - - - -
22/06:00pm 12.7 N 8 10 1013.0 - 0.0 - Cloudy 10 - - - -
22/05:30pm 12.7 N 7 9 1013.2 - 0.0 - Cloudy 10 - - - -
22/05:00pm 12.7 N 9 11 1013.1 - 0.0 - Partly cloudy 10 - - - -
22/04:30pm 13.4 NNW 10 13 1012.9 - 0.0 - Partly cloudy 10 - - - -
22/04:00pm 14.0 N 11 14 1012.8 - 0.0 - Partly cloudy 10 - - - -
22/03:30pm 14.2 N 12 15 1012.9 - 0.0 - Partly cloudy 10 - - - -
22/03:00pm 14.2 N 11 14 1012.4 - 0.0 - - 10 - - - -
22/02:30pm 14.5 N 10 13 1012.8 - 0.0 - Partly cloudy 10 - - - -
22/02:00pm 14.7 N 8 10 1013.2 - 0.0 - Partly cloudy 10 - - - -
22/01:30pm 14.9 NNW 10 13 1013.6 - 0.0 - Partly cloudy 10 - - - -
22/01:18pm 14.9 N 10 13 1013.6 - 0.0 - Partly cloudy 10 - - - -
22/01:00pm 14.5 N 9 12 1013.8 - 0.0 - Partly cloudy 10 - - - -
22/12:30pm 13.8 N 9 12 1014.5 - 0.0 - Partly cloudy 10 - - - -
22/12:05pm 13.2 N 7 10 1014.7 - 0.0 - Partly cloudy 10 - - - -
22/12:00pm 12.7 NNW 7 10 1014.8 - 0.0 - Mostly cloudy 10 - - - -
22/11:54am 12.8 NNW 8 10 1014.9 - 0.0 - Partly cloudy 10 - - - -
22/11:30am 12.1 N 8 11 1014.8 - 0.0 - Partly cloudy 10 - - - -

Other Formats:

Comma delimited format used in spreadsheet applications
http://www.bom.gov.au/fwo/IDS60701/IDS60701.95666.axf

JavaScript Object Notation format (JSON) in row-major order
http://www.bom.gov.au/fwo/IDS60701/IDS60701.95666.json